Ginys del Meteocat

Dades de l'estació automàtica Golmés

?
?
Resum diari 23:00 TU
Dades diàries de l'estació meteorològica
Temperatura mitjana 8.3 °C
Temperatura màxima 12.9 °C 14:18 TU
Temperatura mínima 4.1 °C 7:22 TU
Humitat relativa mitjana 88%
Precipitació acumulada 0.0 mm
Ratxa màxima del vent (2 m) 16.6 km/h - 30º 14:53 TU
Irradiació solar global 6.5 MJ/m2

El tram horari està expressat en Temps Universal (TU). Cal sumar una hora en horari d'hivern i dues en horari d'estiu per passar a l'hora oficial.

Golmés

Metadades estació meteorol´gica
Municipi Golmés
Comarca Pla d'Urgell
Altitud 261 m
Data alta 08.08.2000
Estat actual Operativa
Dades de període
Període
TU
TM
°C
TX
°C
TN
°C
HRM
%
PPT
mm
VVM (2 m)
km/h
DVM (2 m)
graus
VVX (2 m)
km/h
RS
W/m2
00:00 - 00:30 5.7 5.8 5.5 97 0.0 3.2 48 5.4 0
00:30 - 01:00 5.8 6.0 5.5 96 0.0 3.6 77 6.8 0
01:00 - 01:30 5.8 6.0 5.7 95 0.0 3.2 71 5.4 0
01:30 - 02:00 5.8 6.0 5.6 94 0.0 3.6 79 6.1 0
02:00 - 02:30 5.7 6.0 5.4 94 0.0 2.9 65 5.8 0
02:30 - 03:00 5.5 5.7 5.3 95 0.0 2.2 80 5.8 0
03:00 - 03:30 5.3 5.5 5.2 96 0.0 1.8 57 3.6 0
03:30 - 04:00 5.0 5.2 4.9 97 0.0 1.1 47 4.0 0
04:00 - 04:30 4.5 4.8 4.1 98 0.0 2.5 64 5.0 0
04:30 - 05:00 4.4 4.9 4.3 99 0.0 2.2 69 4.0 0
05:00 - 05:30 5.0 5.2 4.8 98 0.0 1.1 87 3.2 0
05:30 - 06:00 4.7 5.0 4.4 98 0.0 2.9 40 5.0 0
06:00 - 06:30 4.9 5.5 4.5 98 0.0 3.2 69 6.1 0
06:30 - 07:00 5.5 5.6 5.1 95 0.0 3.6 70 7.6 0
07:00 - 07:30 4.8 5.2 4.1 95 0.0 2.9 49 5.4 3
07:30 - 08:00 4.7 5.3 4.3 96 0.0 2.2 85 4.3 28
08:00 - 08:30 5.0 5.7 4.5 96 0.0 2.5 63 5.0 66
08:30 - 09:00 6.2 6.7 5.7 95 0.0 3.6 60 5.8 127
09:00 - 09:30 7.4 8.0 6.8 93 0.0 2.9 71 7.2 142
09:30 - 10:00 8.7 9.2 8.1 88 0.0 4.0 81 6.5 189
10:00 - 10:30 9.3 9.5 9.2 86 0.0 4.7 49 7.6 146
10:30 - 11:00 9.8 10.3 9.5 85 0.0 6.1 54 10.4 190
11:00 - 11:30 10.4 10.6 10.3 83 0.0 7.6 49 12.2 203
11:30 - 12:00 11.0 11.5 10.5 81 0.0 7.9 54 13.3 332
12:00 - 12:30 12.2 12.7 11.6 76 0.0 7.2 40 13.3 510
12:30 - 13:00 12.4 12.8 12.2 74 0.0 7.6 42 13.7 312
13:00 - 13:30 12.5 12.7 12.3 73 0.0 8.3 34 14.4 287
13:30 - 14:00 12.5 12.7 12.3 73 0.0 8.3 38 14.4 251
14:00 - 14:30 12.7 12.9 12.5 73 0.0 7.9 37 14.4 252
14:30 - 15:00 12.7 12.9 12.5 72 0.0 8.6 39 16.6 241
15:00 - 15:30 12.6 12.9 12.4 72 0.0 9.0 40 16.2 166
15:30 - 16:00 12.4 12.5 12.1 72 0.0 7.2 43 12.6 127
16:00 - 16:30 11.7 12.1 11.5 75 0.0 5.4 44 11.5 40
16:30 - 17:00 11.3 11.6 11.0 78 0.0 4.0 33 6.1 9
17:00 - 17:30 10.6 10.9 10.5 83 0.0 2.9 82 4.7 0
17:30 - 18:00 10.4 10.7 9.9 84 0.0 3.2 81 6.8 0
18:00 - 18:30 10.1 10.2 9.8 87 0.0 5.0 88 9.4 0
18:30 - 19:00 9.5 10.1 9.1 88 0.0 3.6 73 6.1 0
19:00 - 19:30 9.1 9.3 8.8 87 0.0 5.0 72 8.6 0
19:30 - 20:00 8.8 9.0 8.7 88 0.0 4.7 60 7.6 0
20:00 - 20:30 8.5 8.7 8.4 90 0.0 5.0 44 8.3 0
20:30 - 21:00 8.3 8.5 8.3 92 0.0 4.3 57 9.4 0
21:00 - 21:30 8.1 8.3 8.0 92 0.0 3.6 58 7.2 0
21:30 - 22:00 8.2 8.3 8.0 92 0.0 4.3 64 7.6 0
22:00 - 22:30 8.2 8.3 8.1 92 0.0 4.0 53 7.2 0
22:30 - 23:00 7.9 8.2 7.7 92 0.0 4.0 55 7.9 0
23:00 - 23:30 7.6 7.8 7.3 93 0.0 3.6 60 6.1 0

Les dades en taronja només han passat un control de qualitat automàtic. Resta pendent la seva validació definitiva.